Terminal Aerodrome Forecast
Issued by NWS Green Bay, WI

Home | Current Version | Previous Version | Text Only | Print | Product List | Glossary On
Versions: 1 2 3 4 5 6 7 8 9 10 11 12 13 14
000
FTUS43 KGRB 050520
TAFGRB
TAF
KGRB 050520Z 0506/0606 01010G14KT P6SM SKC
     FM050800 34007KT P6SM FEW100 SCT200
     FM052100 27004KT P6SM FEW070 SCT200
     FM060000 22004KT P6SM SKC=

USA.gov is the U.S. government's official web portal to all federal, state and local government web resources and services.